sensor_id;sensor_type;location;lat;lon;timestamp;temperature;humidity
27797;DHT22;15177;50.844;4.412;2022-08-23T00:01:34;22.60;99.90
27797;DHT22;15177;50.844;4.412;2022-08-23T00:04:04;22.50;99.90
27797;DHT22;15177;50.844;4.412;2022-08-23T00:06:31;22.50;99.90
27797;DHT22;15177;50.844;4.412;2022-08-23T00:08:57;22.50;99.90
27797;DHT22;15177;50.844;4.412;2022-08-23T00:11:54;22.50;99.90
27797;DHT22;15177;50.844;4.412;2022-08-23T00:14:30;22.70;99.90
27797;DHT22;15177;50.844;4.412;2022-08-23T00:16:56;22.60;99.90
27797;DHT22;15177;50.844;4.412;2022-08-23T00:19:24;22.50;99.90
27797;DHT22;15177;50.844;4.412;2022-08-23T00:21:51;22.60;99.90
27797;DHT22;15177;50.844;4.412;2022-08-23T00:24:18;22.50;99.90
27797;DHT22;15177;50.844;4.412;2022-08-23T00:27:07;22.70;99.90
27797;DHT22;15177;50.844;4.412;2022-08-23T00:32:01;22.60;99.90
27797;DHT22;15177;50.844;4.412;2022-08-23T00:34:27;22.60;99.90
27797;DHT22;15177;50.844;4.412;2022-08-23T00:36:54;22.50;99.90
27797;DHT22;15177;50.844;4.412;2022-08-23T00:39:20;22.50;99.90
27797;DHT22;15177;50.844;4.412;2022-08-23T00:41:47;22.60;99.90
27797;DHT22;15177;50.844;4.412;2022-08-23T00:44:42;22.70;99.90
27797;DHT22;15177;50.844;4.412;2022-08-23T00:47:27;22.80;99.90
27797;DHT22;15177;50.844;4.412;2022-08-23T00:50:29;22.90;99.90
27797;DHT22;15177;50.844;4.412;2022-08-23T00:53:15;22.90;99.90
27797;DHT22;15177;50.844;4.412;2022-08-23T00:55:44;22.70;99.90
27797;DHT22;15177;50.844;4.412;2022-08-23T00:58:12;22.60;99.90
27797;DHT22;15177;50.844;4.412;2022-08-23T01:00:38;22.60;99.90
27797;DHT22;15177;50.844;4.412;2022-08-23T01:03:07;22.70;99.90
27797;DHT22;15177;50.844;4.412;2022-08-23T01:08:16;22.60;99.90
27797;DHT22;15177;50.844;4.412;2022-08-23T01:10:52;22.60;99.90
27797;DHT22;15177;50.844;4.412;2022-08-23T01:13:39;22.50;99.90
27797;DHT22;15177;50.844;4.412;2022-08-23T01:16:27;22.50;99.90
27797;DHT22;15177;50.844;4.412;2022-08-23T01:19:02;22.30;99.90
27797;DHT22;15177;50.844;4.412;2022-08-23T01:21:40;22.30;99.90
27797;DHT22;15177;50.844;4.412;2022-08-23T01:24:08;22.40;99.90
27797;DHT22;15177;50.844;4.412;2022-08-23T01:26:35;22.40;99.90
27797;DHT22;15177;50.844;4.412;2022-08-23T01:29:05;22.30;99.90
27797;DHT22;15177;50.844;4.412;2022-08-23T01:31:32;22.30;99.90
27797;DHT22;15177;50.844;4.412;2022-08-23T01:34:02;22.40;99.90
27797;DHT22;15177;50.844;4.412;2022-08-23T01:36:29;22.50;99.90
27797;DHT22;15177;50.844;4.412;2022-08-23T01:38:55;22.50;99.90
27797;DHT22;15177;50.844;4.412;2022-08-23T01:41:22;22.40;99.90
27797;DHT22;15177;50.844;4.412;2022-08-23T01:43:48;22.20;99.90
27797;DHT22;15177;50.844;4.412;2022-08-23T01:46:17;22.00;99.90
27797;DHT22;15177;50.844;4.412;2022-08-23T01:48:44;22.10;99.90
27797;DHT22;15177;50.844;4.412;2022-08-23T01:51:11;22.30;99.90
27797;DHT22;15177;50.844;4.412;2022-08-23T01:53:37;22.30;99.90
27797;DHT22;15177;50.844;4.412;2022-08-23T01:56:05;22.40;99.90
27797;DHT22;15177;50.844;4.412;2022-08-23T01:58:35;22.40;99.90
27797;DHT22;15177;50.844;4.412;2022-08-23T02:01:01;22.50;99.90
27797;DHT22;15177;50.844;4.412;2022-08-23T02:03:29;22.40;99.90
27797;DHT22;15177;50.844;4.412;2022-08-23T02:05:56;22.50;99.90
27797;DHT22;15177;50.844;4.412;2022-08-23T02:08:23;22.50;99.90
27797;DHT22;15177;50.844;4.412;2022-08-23T02:11:17;22.50;99.90
27797;DHT22;15177;50.844;4.412;2022-08-23T02:13:47;22.40;99.90
27797;DHT22;15177;50.844;4.412;2022-08-23T02:18:48;22.20;99.90
27797;DHT22;15177;50.844;4.412;2022-08-23T02:21:15;22.10;99.90
27797;DHT22;15177;50.844;4.412;2022-08-23T02:23:40;22.10;99.90
27797;DHT22;15177;50.844;4.412;2022-08-23T02:26:06;22.00;99.90
27797;DHT22;15177;50.844;4.412;2022-08-23T02:28:32;22.00;99.90
27797;DHT22;15177;50.844;4.412;2022-08-23T02:30:58;22.00;99.90
27797;DHT22;15177;50.844;4.412;2022-08-23T02:33:25;22.00;99.90
27797;DHT22;15177;50.844;4.412;2022-08-23T02:35:51;22.00;99.90
27797;DHT22;15177;50.844;4.412;2022-08-23T02:38:16;22.10;99.90
27797;DHT22;15177;50.844;4.412;2022-08-23T02:40:43;22.10;99.90
27797;DHT22;15177;50.844;4.412;2022-08-23T02:43:09;22.00;99.90
27797;DHT22;15177;50.844;4.412;2022-08-23T02:45:36;22.10;99.90
27797;DHT22;15177;50.844;4.412;2022-08-23T02:48:02;22.00;99.90
27797;DHT22;15177;50.844;4.412;2022-08-23T02:50:28;21.90;99.90
27797;DHT22;15177;50.844;4.412;2022-08-23T02:52:54;21.80;99.90
27797;DHT22;15177;50.844;4.412;2022-08-23T02:55:20;21.70;99.90
27797;DHT22;15177;50.844;4.412;2022-08-23T02:57:46;21.80;99.90
27797;DHT22;15177;50.844;4.412;2022-08-23T03:00:13;21.80;99.90
27797;DHT22;15177;50.844;4.412;2022-08-23T03:02:40;21.80;99.90
27797;DHT22;15177;50.844;4.412;2022-08-23T03:05:06;21.70;99.90
27797;DHT22;15177;50.844;4.412;2022-08-23T03:07:32;21.50;99.90
27797;DHT22;15177;50.844;4.412;2022-08-23T03:09:58;21.70;99.90
27797;DHT22;15177;50.844;4.412;2022-08-23T03:12:24;21.50;99.90
27797;DHT22;15177;50.844;4.412;2022-08-23T03:14:51;21.40;99.90
27797;DHT22;15177;50.844;4.412;2022-08-23T03:17:17;21.50;99.90
27797;DHT22;15177;50.844;4.412;2022-08-23T03:19:43;21.30;99.90
27797;DHT22;15177;50.844;4.412;2022-08-23T03:22:09;21.40;99.90
27797;DHT22;15177;50.844;4.412;2022-08-23T03:24:35;21.40;99.90
27797;DHT22;15177;50.844;4.412;2022-08-23T03:27:02;21.30;99.90
27797;DHT22;15177;50.844;4.412;2022-08-23T03:29:28;21.30;99.90
27797;DHT22;15177;50.844;4.412;2022-08-23T03:31:53;21.20;99.90
27797;DHT22;15177;50.844;4.412;2022-08-23T03:34:19;21.10;99.90
27797;DHT22;15177;50.844;4.412;2022-08-23T03:36:45;21.00;99.90
27797;DHT22;15177;50.844;4.412;2022-08-23T03:39:11;20.90;99.90
27797;DHT22;15177;50.844;4.412;2022-08-23T03:41:37;21.10;99.90
27797;DHT22;15177;50.844;4.412;2022-08-23T03:44:03;21.10;99.90
27797;DHT22;15177;50.844;4.412;2022-08-23T03:46:29;21.30;99.90
27797;DHT22;15177;50.844;4.412;2022-08-23T03:48:57;21.40;99.90
27797;DHT22;15177;50.844;4.412;2022-08-23T03:51:25;21.40;99.90
27797;DHT22;15177;50.844;4.412;2022-08-23T03:53:51;21.50;99.90
27797;DHT22;15177;50.844;4.412;2022-08-23T03:56:29;21.40;99.90
27797;DHT22;15177;50.844;4.412;2022-08-23T03:58:56;21.30;99.90
27797;DHT22;15177;50.844;4.412;2022-08-23T04:01:22;21.50;99.90
27797;DHT22;15177;50.844;4.412;2022-08-23T04:03:48;21.50;99.90
27797;DHT22;15177;50.844;4.412;2022-08-23T04:06:14;21.40;99.90
27797;DHT22;15177;50.844;4.412;2022-08-23T04:08:41;21.40;99.90
27797;DHT22;15177;50.844;4.412;2022-08-23T04:11:07;21.50;99.90
27797;DHT22;15177;50.844;4.412;2022-08-23T04:13:34;21.40;99.90
27797;DHT22;15177;50.844;4.412;2022-08-23T04:16:01;21.30;99.90
27797;DHT22;15177;50.844;4.412;2022-08-23T04:18:28;21.30;99.90
27797;DHT22;15177;50.844;4.412;2022-08-23T04:20:57;21.40;99.90
27797;DHT22;15177;50.844;4.412;2022-08-23T04:23:24;21.40;99.90
27797;DHT22;15177;50.844;4.412;2022-08-23T04:25:53;21.40;99.90
27797;DHT22;15177;50.844;4.412;2022-08-23T04:28:18;21.30;99.90
27797;DHT22;15177;50.844;4.412;2022-08-23T04:30:44;21.20;99.90
27797;DHT22;15177;50.844;4.412;2022-08-23T04:33:11;21.10;99.90
27797;DHT22;15177;50.844;4.412;2022-08-23T04:35:37;21.00;99.90
27797;DHT22;15177;50.844;4.412;2022-08-23T04:38:03;21.10;99.90
27797;DHT22;15177;50.844;4.412;2022-08-23T04:40:28;21.20;99.90
27797;DHT22;15177;50.844;4.412;2022-08-23T04:43:12;21.30;99.90
27797;DHT22;15177;50.844;4.412;2022-08-23T04:45:39;21.30;99.90
27797;DHT22;15177;50.844;4.412;2022-08-23T04:48:06;21.20;99.90
27797;DHT22;15177;50.844;4.412;2022-08-23T04:50:34;21.20;99.90
27797;DHT22;15177;50.844;4.412;2022-08-23T04:53:00;21.10;99.90
27797;DHT22;15177;50.844;4.412;2022-08-23T04:55:25;21.20;99.90
27797;DHT22;15177;50.844;4.412;2022-08-23T04:57:51;21.20;99.90
27797;DHT22;15177;50.844;4.412;2022-08-23T05:00:17;21.20;99.90
27797;DHT22;15177;50.844;4.412;2022-08-23T05:02:43;21.10;99.90
27797;DHT22;15177;50.844;4.412;2022-08-23T05:05:09;21.00;99.90
27797;DHT22;15177;50.844;4.412;2022-08-23T05:07:37;21.00;99.90
27797;DHT22;15177;50.844;4.412;2022-08-23T05:10:07;21.10;99.90
27797;DHT22;15177;50.844;4.412;2022-08-23T05:12:34;21.30;99.90
27797;DHT22;15177;50.844;4.412;2022-08-23T05:14:59;21.50;99.90
27797;DHT22;15177;50.844;4.412;2022-08-23T05:17:25;21.50;99.90
27797;DHT22;15177;50.844;4.412;2022-08-23T05:19:51;21.50;99.90
27797;DHT22;15177;50.844;4.412;2022-08-23T05:22:17;21.50;99.90
27797;DHT22;15177;50.844;4.412;2022-08-23T05:24:42;21.50;99.90
27797;DHT22;15177;50.844;4.412;2022-08-23T05:27:08;21.40;99.90
27797;DHT22;15177;50.844;4.412;2022-08-23T05:29:34;21.30;99.90
27797;DHT22;15177;50.844;4.412;2022-08-23T05:32:00;21.10;99.90
27797;DHT22;15177;50.844;4.412;2022-08-23T05:34:26;21.30;99.90
27797;DHT22;15177;50.844;4.412;2022-08-23T05:36:52;21.40;99.90
27797;DHT22;15177;50.844;4.412;2022-08-23T05:39:18;21.40;99.90
27797;DHT22;15177;50.844;4.412;2022-08-23T05:41:44;21.30;99.90
27797;DHT22;15177;50.844;4.412;2022-08-23T05:44:10;21.20;99.90
27797;DHT22;15177;50.844;4.412;2022-08-23T05:46:36;21.00;99.90
27797;DHT22;15177;50.844;4.412;2022-08-23T05:49:02;20.80;99.90
27797;DHT22;15177;50.844;4.412;2022-08-23T05:51:31;21.20;99.90
27797;DHT22;15177;50.844;4.412;2022-08-23T05:54:02;21.40;99.90
27797;DHT22;15177;50.844;4.412;2022-08-23T05:56:33;21.60;99.90
27797;DHT22;15177;50.844;4.412;2022-08-23T05:59:02;21.80;99.90
27797;DHT22;15177;50.844;4.412;2022-08-23T06:01:29;22.80;99.90
27797;DHT22;15177;50.844;4.412;2022-08-23T06:03:58;24.30;99.90
27797;DHT22;15177;50.844;4.412;2022-08-23T06:06:24;25.90;99.90
27797;DHT22;15177;50.844;4.412;2022-08-23T06:08:51;27.30;99.00
27797;DHT22;15177;50.844;4.412;2022-08-23T06:11:28;28.80;95.40
27797;DHT22;15177;50.844;4.412;2022-08-23T06:13:57;30.10;90.80
27797;DHT22;15177;50.844;4.412;2022-08-23T06:16:28;31.20;84.80
27797;DHT22;15177;50.844;4.412;2022-08-23T06:18:55;32.10;78.50
27797;DHT22;15177;50.844;4.412;2022-08-23T06:21:23;32.90;73.60
27797;DHT22;15177;50.844;4.412;2022-08-23T06:23:50;33.70;70.10
27797;DHT22;15177;50.844;4.412;2022-08-23T06:28:45;35.10;64.40
27797;DHT22;15177;50.844;4.412;2022-08-23T06:31:11;35.70;61.80
27797;DHT22;15177;50.844;4.412;2022-08-23T06:33:41;36.10;59.90
27797;DHT22;15177;50.844;4.412;2022-08-23T06:36:09;36.70;58.50
27797;DHT22;15177;50.844;4.412;2022-08-23T06:38:38;37.40;57.20
27797;DHT22;15177;50.844;4.412;2022-08-23T06:41:07;37.70;55.50
27797;DHT22;15177;50.844;4.412;2022-08-23T06:43:35;37.80;55.00
27797;DHT22;15177;50.844;4.412;2022-08-23T06:46:12;38.30;54.40
27797;DHT22;15177;50.844;4.412;2022-08-23T06:48:39;38.40;53.40
27797;DHT22;15177;50.844;4.412;2022-08-23T06:51:14;38.90;53.00
27797;DHT22;15177;50.844;4.412;2022-08-23T06:53:45;39.10;52.30
27797;DHT22;15177;50.844;4.412;2022-08-23T06:56:10;38.50;51.90
27797;DHT22;15177;50.844;4.412;2022-08-23T06:58:37;38.50;52.60
27797;DHT22;15177;50.844;4.412;2022-08-23T07:04:00;38.50;52.20
27797;DHT22;15177;50.844;4.412;2022-08-23T07:06:27;38.60;52.00
27797;DHT22;15177;50.844;4.412;2022-08-23T07:08:53;38.70;51.50
27797;DHT22;15177;50.844;4.412;2022-08-23T07:11:20;38.30;51.60
27797;DHT22;15177;50.844;4.412;2022-08-23T07:13:47;37.70;52.50
27797;DHT22;15177;50.844;4.412;2022-08-23T07:16:14;37.60;52.70
27797;DHT22;15177;50.844;4.412;2022-08-23T07:18:42;37.30;53.40
27797;DHT22;15177;50.844;4.412;2022-08-23T07:21:09;36.30;54.50
27797;DHT22;15177;50.844;4.412;2022-08-23T07:23:35;35.90;55.40
27797;DHT22;15177;50.844;4.412;2022-08-23T07:26:05;36.00;55.50
27797;DHT22;15177;50.844;4.412;2022-08-23T07:28:31;36.80;54.90
27797;DHT22;15177;50.844;4.412;2022-08-23T07:31:10;37.50;53.50
27797;DHT22;15177;50.844;4.412;2022-08-23T07:33:37;38.30;52.70
27797;DHT22;15177;50.844;4.412;2022-08-23T07:36:04;38.60;51.60
27797;DHT22;15177;50.844;4.412;2022-08-23T07:38:31;38.90;51.60
27797;DHT22;15177;50.844;4.412;2022-08-23T07:40:57;39.30;50.90
27797;DHT22;15177;50.844;4.412;2022-08-23T07:43:23;39.70;50.10
27797;DHT22;15177;50.844;4.412;2022-08-23T07:45:49;40.10;49.50
27797;DHT22;15177;50.844;4.412;2022-08-23T07:48:15;39.80;49.40
27797;DHT22;15177;50.844;4.412;2022-08-23T07:50:41;40.10;49.30
27797;DHT22;15177;50.844;4.412;2022-08-23T07:53:07;40.10;48.60
27797;DHT22;15177;50.844;4.412;2022-08-23T07:55:33;40.30;48.50
27797;DHT22;15177;50.844;4.412;2022-08-23T07:57:59;40.70;47.90
27797;DHT22;15177;50.844;4.412;2022-08-23T08:00:25;41.10;47.10
27797;DHT22;15177;50.844;4.412;2022-08-23T08:02:51;41.20;46.80
27797;DHT22;15177;50.844;4.412;2022-08-23T08:05:17;41.30;46.60
27797;DHT22;15177;50.844;4.412;2022-08-23T08:07:43;41.40;46.20
27797;DHT22;15177;50.844;4.412;2022-08-23T08:10:09;41.40;46.20
27797;DHT22;15177;50.844;4.412;2022-08-23T08:12:35;40.90;46.20
27797;DHT22;15177;50.844;4.412;2022-08-23T08:15:01;40.90;46.40
27797;DHT22;15177;50.844;4.412;2022-08-23T08:17:26;40.40;46.70
27797;DHT22;15177;50.844;4.412;2022-08-23T08:19:52;40.70;46.70
27797;DHT22;15177;50.844;4.412;2022-08-23T08:22:18;40.90;46.40
27797;DHT22;15177;50.844;4.412;2022-08-23T08:24:43;40.90;46.50
27797;DHT22;15177;50.844;4.412;2022-08-23T08:27:09;41.00;46.00
27797;DHT22;15177;50.844;4.412;2022-08-23T08:29:35;40.90;45.90
27797;DHT22;15177;50.844;4.412;2022-08-23T08:32:01;41.00;46.70
27797;DHT22;15177;50.844;4.412;2022-08-23T08:34:27;41.00;45.90
27797;DHT22;15177;50.844;4.412;2022-08-23T08:36:54;41.00;45.80
27797;DHT22;15177;50.844;4.412;2022-08-23T08:39:28;40.30;46.70
27797;DHT22;15177;50.844;4.412;2022-08-23T08:49:53;38.60;48.80
27797;DHT22;15177;50.844;4.412;2022-08-23T08:52:26;38.20;49.60
27797;DHT22;15177;50.844;4.412;2022-08-23T08:57:48;37.60;50.50
27797;DHT22;15177;50.844;4.412;2022-08-23T09:00:21;36.90;51.40
27797;DHT22;15177;50.844;4.412;2022-08-23T09:02:48;36.40;52.30
27797;DHT22;15177;50.844;4.412;2022-08-23T09:05:17;36.00;53.00
27797;DHT22;15177;50.844;4.412;2022-08-23T09:12:50;34.90;55.20
27797;DHT22;15177;50.844;4.412;2022-08-23T09:18:11;34.80;55.80
27797;DHT22;15177;50.844;4.412;2022-08-23T09:20:38;34.70;56.00
27797;DHT22;15177;50.844;4.412;2022-08-23T09:23:15;34.70;56.30
27797;DHT22;15177;50.844;4.412;2022-08-23T09:25:51;34.50;56.70
27797;DHT22;15177;50.844;4.412;2022-08-23T09:28:17;34.30;57.10
27797;DHT22;15177;50.844;4.412;2022-08-23T09:31:01;34.20;57.30
27797;DHT22;15177;50.844;4.412;2022-08-23T09:33:42;33.80;57.80
27797;DHT22;15177;50.844;4.412;2022-08-23T09:36:23;33.50;58.40
27797;DHT22;15177;50.844;4.412;2022-08-23T09:39:02;33.10;59.40
27797;DHT22;15177;50.844;4.412;2022-08-23T09:41:40;33.10;60.40
27797;DHT22;15177;50.844;4.412;2022-08-23T09:44:11;33.20;59.70
27797;DHT22;15177;50.844;4.412;2022-08-23T09:46:41;33.20;59.70
27797;DHT22;15177;50.844;4.412;2022-08-23T09:49:26;33.40;59.70
27797;DHT22;15177;50.844;4.412;2022-08-23T09:51:55;33.90;59.30
27797;DHT22;15177;50.844;4.412;2022-08-23T09:54:29;34.00;59.00
27797;DHT22;15177;50.844;4.412;2022-08-23T09:56:58;34.10;58.80
27797;DHT22;15177;50.844;4.412;2022-08-23T10:01:56;34.00;59.20
27797;DHT22;15177;50.844;4.412;2022-08-23T10:04:53;34.10;59.10
27797;DHT22;15177;50.844;4.412;2022-08-23T10:07:34;34.80;58.50
27797;DHT22;15177;50.844;4.412;2022-08-23T10:10:26;35.10;57.70
27797;DHT22;15177;50.844;4.412;2022-08-23T10:12:53;35.60;56.90
27797;DHT22;15177;50.844;4.412;2022-08-23T10:18:51;36.20;55.90
27797;DHT22;15177;50.844;4.412;2022-08-23T10:23:55;36.70;54.90
27797;DHT22;15177;50.844;4.412;2022-08-23T10:26:42;36.80;54.80
27797;DHT22;15177;50.844;4.412;2022-08-23T10:29:36;36.80;54.80
27797;DHT22;15177;50.844;4.412;2022-08-23T10:32:23;36.90;54.60
27797;DHT22;15177;50.844;4.412;2022-08-23T10:38:02;36.00;56.10
27797;DHT22;15177;50.844;4.412;2022-08-23T10:40:48;36.10;55.70
27797;DHT22;15177;50.844;4.412;2022-08-23T10:46:01;35.80;55.90
27797;DHT22;15177;50.844;4.412;2022-08-23T10:48:36;35.60;56.20
27797;DHT22;15177;50.844;4.412;2022-08-23T10:51:10;35.70;56.10
27797;DHT22;15177;50.844;4.412;2022-08-23T10:53:41;36.00;56.00
27797;DHT22;15177;50.844;4.412;2022-08-23T10:56:17;35.70;56.00
27797;DHT22;15177;50.844;4.412;2022-08-23T11:04:28;34.50;57.60
27797;DHT22;15177;50.844;4.412;2022-08-23T11:06:57;33.70;59.00
27797;DHT22;15177;50.844;4.412;2022-08-23T11:12:05;33.80;59.90
27797;DHT22;15177;50.844;4.412;2022-08-23T11:17:29;34.70;58.60
27797;DHT22;15177;50.844;4.412;2022-08-23T11:20:04;34.60;58.60
27797;DHT22;15177;50.844;4.412;2022-08-23T11:28:30;33.50;60.20
27797;DHT22;15177;50.844;4.412;2022-08-23T11:31:20;33.00;60.90
27797;DHT22;15177;50.844;4.412;2022-08-23T11:42:47;32.50;62.40
27797;DHT22;15177;50.844;4.412;2022-08-23T11:45:28;32.40;61.90
27797;DHT22;15177;50.844;4.412;2022-08-23T11:48:34;32.10;62.20
27797;DHT22;15177;50.844;4.412;2022-08-23T11:56:23;31.70;63.90
27797;DHT22;15177;50.844;4.412;2022-08-23T12:01:39;31.40;64.40
27797;DHT22;15177;50.844;4.412;2022-08-23T12:04:09;31.30;64.80
27797;DHT22;15177;50.844;4.412;2022-08-23T12:06:56;31.20;66.00
27797;DHT22;15177;50.844;4.412;2022-08-23T12:20:08;30.90;67.30
27797;DHT22;15177;50.844;4.412;2022-08-23T12:23:06;30.60;68.30
27797;DHT22;15177;50.844;4.412;2022-08-23T12:25:35;30.40;69.20
27797;DHT22;15177;50.844;4.412;2022-08-23T12:28:22;30.40;69.00
27797;DHT22;15177;50.844;4.412;2022-08-23T12:31:23;30.30;69.00
27797;DHT22;15177;50.844;4.412;2022-08-23T12:34:14;30.40;68.60
27797;DHT22;15177;50.844;4.412;2022-08-23T12:39:36;30.60;68.10
27797;DHT22;15177;50.844;4.412;2022-08-23T12:42:14;30.70;68.30
27797;DHT22;15177;50.844;4.412;2022-08-23T12:44:44;30.70;67.90
27797;DHT22;15177;50.844;4.412;2022-08-23T12:47:16;30.60;68.10
27797;DHT22;15177;50.844;4.412;2022-08-23T12:52:27;30.30;70.20
27797;DHT22;15177;50.844;4.412;2022-08-23T12:54:53;30.40;71.30
27797;DHT22;15177;50.844;4.412;2022-08-23T12:57:29;30.40;70.40
27797;DHT22;15177;50.844;4.412;2022-08-23T13:00:10;30.40;70.50
27797;DHT22;15177;50.844;4.412;2022-08-23T13:02:48;30.30;71.10
27797;DHT22;15177;50.844;4.412;2022-08-23T13:05:42;30.20;70.40
27797;DHT22;15177;50.844;4.412;2022-08-23T13:08:13;30.20;69.90
27797;DHT22;15177;50.844;4.412;2022-08-23T13:10:42;30.20;70.10
27797;DHT22;15177;50.844;4.412;2022-08-23T13:13:11;30.30;69.60
27797;DHT22;15177;50.844;4.412;2022-08-23T13:16:01;30.30;69.80
27797;DHT22;15177;50.844;4.412;2022-08-23T13:18:42;30.50;69.70
27797;DHT22;15177;50.844;4.412;2022-08-23T13:21:29;30.50;69.80
27797;DHT22;15177;50.844;4.412;2022-08-23T13:23:59;30.50;69.80
27797;DHT22;15177;50.844;4.412;2022-08-23T13:26:37;30.30;70.30
27797;DHT22;15177;50.844;4.412;2022-08-23T13:29:22;30.50;70.00
27797;DHT22;15177;50.844;4.412;2022-08-23T13:32:00;30.60;69.30
27797;DHT22;15177;50.844;4.412;2022-08-23T13:37:29;30.80;69.10
27797;DHT22;15177;50.844;4.412;2022-08-23T13:39:59;30.80;68.90
27797;DHT22;15177;50.844;4.412;2022-08-23T13:45:10;30.80;69.20
27797;DHT22;15177;50.844;4.412;2022-08-23T13:47:37;30.90;69.10
27797;DHT22;15177;50.844;4.412;2022-08-23T13:50:03;30.90;69.00
27797;DHT22;15177;50.844;4.412;2022-08-23T13:52:29;30.90;69.20
27797;DHT22;15177;50.844;4.412;2022-08-23T13:54:56;30.80;69.20
27797;DHT22;15177;50.844;4.412;2022-08-23T13:57:22;30.80;68.90
27797;DHT22;15177;50.844;4.412;2022-08-23T13:59:51;30.80;68.90
27797;DHT22;15177;50.844;4.412;2022-08-23T14:02:20;30.80;69.00
27797;DHT22;15177;50.844;4.412;2022-08-23T14:04:46;30.80;69.20
27797;DHT22;15177;50.844;4.412;2022-08-23T14:07:12;30.70;69.30
27797;DHT22;15177;50.844;4.412;2022-08-23T14:09:39;30.70;69.10
27797;DHT22;15177;50.844;4.412;2022-08-23T14:12:09;30.60;69.90
27797;DHT22;15177;50.844;4.412;2022-08-23T14:14:36;30.70;69.10
27797;DHT22;15177;50.844;4.412;2022-08-23T14:17:02;30.90;68.90
27797;DHT22;15177;50.844;4.412;2022-08-23T14:19:28;30.80;67.70
27797;DHT22;15177;50.844;4.412;2022-08-23T14:21:57;30.90;68.40
27797;DHT22;15177;50.844;4.412;2022-08-23T14:24:22;30.80;68.60
27797;DHT22;15177;50.844;4.412;2022-08-23T14:26:48;30.80;67.70
27797;DHT22;15177;50.844;4.412;2022-08-23T14:29:14;30.70;67.90
27797;DHT22;15177;50.844;4.412;2022-08-23T14:31:39;30.60;67.60
27797;DHT22;15177;50.844;4.412;2022-08-23T14:34:05;30.50;68.00
27797;DHT22;15177;50.844;4.412;2022-08-23T14:36:32;30.60;68.20
27797;DHT22;15177;50.844;4.412;2022-08-23T14:38:58;30.50;68.50
27797;DHT22;15177;50.844;4.412;2022-08-23T14:41:26;30.40;69.90
27797;DHT22;15177;50.844;4.412;2022-08-23T14:43:53;30.40;70.40
27797;DHT22;15177;50.844;4.412;2022-08-23T14:46:20;30.20;70.90
27797;DHT22;15177;50.844;4.412;2022-08-23T14:48:46;30.10;70.80
27797;DHT22;15177;50.844;4.412;2022-08-23T14:51:25;30.10;70.30
27797;DHT22;15177;50.844;4.412;2022-08-23T14:53:52;30.10;69.90
27797;DHT22;15177;50.844;4.412;2022-08-23T14:56:18;30.20;69.70
27797;DHT22;15177;50.844;4.412;2022-08-23T14:58:43;30.20;70.00
27797;DHT22;15177;50.844;4.412;2022-08-23T15:01:11;30.30;69.60
27797;DHT22;15177;50.844;4.412;2022-08-23T15:03:37;30.20;70.20
27797;DHT22;15177;50.844;4.412;2022-08-23T15:06:07;30.10;70.40
27797;DHT22;15177;50.844;4.412;2022-08-23T15:08:33;30.00;70.80
27797;DHT22;15177;50.844;4.412;2022-08-23T15:10:59;30.00;71.10
27797;DHT22;15177;50.844;4.412;2022-08-23T15:13:24;30.10;70.70
27797;DHT22;15177;50.844;4.412;2022-08-23T15:15:51;30.20;69.50
27797;DHT22;15177;50.844;4.412;2022-08-23T15:18:17;30.20;69.40
27797;DHT22;15177;50.844;4.412;2022-08-23T15:20:43;30.30;69.60
27797;DHT22;15177;50.844;4.412;2022-08-23T15:23:10;30.20;69.50
27797;DHT22;15177;50.844;4.412;2022-08-23T15:25:38;30.20;69.80
27797;DHT22;15177;50.844;4.412;2022-08-23T15:28:07;30.10;69.60
27797;DHT22;15177;50.844;4.412;2022-08-23T15:30:33;30.10;69.50
27797;DHT22;15177;50.844;4.412;2022-08-23T15:32:58;30.10;69.80
27797;DHT22;15177;50.844;4.412;2022-08-23T15:35:25;30.10;70.00
27797;DHT22;15177;50.844;4.412;2022-08-23T15:37:51;30.00;70.00
27797;DHT22;15177;50.844;4.412;2022-08-23T15:40:18;30.00;69.80
27797;DHT22;15177;50.844;4.412;2022-08-23T15:42:43;29.90;69.70
27797;DHT22;15177;50.844;4.412;2022-08-23T15:45:10;30.00;69.60
27797;DHT22;15177;50.844;4.412;2022-08-23T15:47:48;30.10;69.00
27797;DHT22;15177;50.844;4.412;2022-08-23T15:50:16;30.20;68.40
27797;DHT22;15177;50.844;4.412;2022-08-23T15:52:42;30.20;68.40
27797;DHT22;15177;50.844;4.412;2022-08-23T15:55:08;30.20;68.30
27797;DHT22;15177;50.844;4.412;2022-08-23T15:57:43;30.20;68.40
27797;DHT22;15177;50.844;4.412;2022-08-23T16:00:11;30.10;68.50
27797;DHT22;15177;50.844;4.412;2022-08-23T16:02:38;30.10;68.80
27797;DHT22;15177;50.844;4.412;2022-08-23T16:05:05;30.10;69.20
27797;DHT22;15177;50.844;4.412;2022-08-23T16:07:31;30.10;69.40
27797;DHT22;15177;50.844;4.412;2022-08-23T16:09:58;30.10;68.70
27797;DHT22;15177;50.844;4.412;2022-08-23T16:12:25;30.20;68.70
27797;DHT22;15177;50.844;4.412;2022-08-23T16:14:51;29.80;69.20
27797;DHT22;15177;50.844;4.412;2022-08-23T16:17:18;29.60;70.00
27797;DHT22;15177;50.844;4.412;2022-08-23T16:19:45;29.60;70.60
27797;DHT22;15177;50.844;4.412;2022-08-23T16:22:10;29.60;70.80
27797;DHT22;15177;50.844;4.412;2022-08-23T16:24:36;29.70;70.60
27797;DHT22;15177;50.844;4.412;2022-08-23T16:27:04;29.70;70.40
27797;DHT22;15177;50.844;4.412;2022-08-23T16:29:31;29.80;70.30
27797;DHT22;15177;50.844;4.412;2022-08-23T16:31:59;29.80;70.30
27797;DHT22;15177;50.844;4.412;2022-08-23T16:34:25;29.80;70.00
27797;DHT22;15177;50.844;4.412;2022-08-23T16:37:00;29.90;70.30
27797;DHT22;15177;50.844;4.412;2022-08-23T16:39:27;29.90;70.60
27797;DHT22;15177;50.844;4.412;2022-08-23T16:41:54;30.00;70.60
27797;DHT22;15177;50.844;4.412;2022-08-23T16:44:20;29.70;71.40
27797;DHT22;15177;50.844;4.412;2022-08-23T16:46:46;29.40;72.30
27797;DHT22;15177;50.844;4.412;2022-08-23T16:49:13;29.20;73.30
27797;DHT22;15177;50.844;4.412;2022-08-23T16:51:40;29.20;73.60
27797;DHT22;15177;50.844;4.412;2022-08-23T16:54:06;29.30;73.40
27797;DHT22;15177;50.844;4.412;2022-08-23T16:56:37;29.40;72.90
27797;DHT22;15177;50.844;4.412;2022-08-23T16:59:05;29.50;72.40
27797;DHT22;15177;50.844;4.412;2022-08-23T17:01:43;29.60;72.50
27797;DHT22;15177;50.844;4.412;2022-08-23T17:04:10;29.70;72.10
27797;DHT22;15177;50.844;4.412;2022-08-23T17:06:37;29.60;72.30
27797;DHT22;15177;50.844;4.412;2022-08-23T17:09:03;29.60;72.50
27797;DHT22;15177;50.844;4.412;2022-08-23T17:11:28;29.60;72.70
27797;DHT22;15177;50.844;4.412;2022-08-23T17:13:55;29.60;72.80
27797;DHT22;15177;50.844;4.412;2022-08-23T17:16:21;29.70;72.40
27797;DHT22;15177;50.844;4.412;2022-08-23T17:18:48;29.50;73.20
27797;DHT22;15177;50.844;4.412;2022-08-23T17:21:14;29.50;72.90
27797;DHT22;15177;50.844;4.412;2022-08-23T17:23:41;29.50;72.90
27797;DHT22;15177;50.844;4.412;2022-08-23T17:26:07;29.50;72.80
27797;DHT22;15177;50.844;4.412;2022-08-23T17:28:34;29.50;73.20